Time;durP1;ratioP1;P1;durP2;ratioP2;P2;SDS_P1;SDS_P2;PMS_P1;PMS_P2;Temp;Humidity;BMP_temperature;BMP_pressure;BME280_temperature;BME280_humidity;BME280_pressure;Samples;Min_cycle;Max_cycle;Signal;HPM_P1;HPM_P2
2021/12/02 00:01:59;;;;;;;7.22;1.23;;;;;;;-147.53;100.00;57128.34;15287697;19;20599;-60
2021/12/02 00:07:01;;;;;;;5.80;0.70;;;;;;;-147.53;100.00;57128.34;15289385;19;20470;-60
2021/12/02 00:12:04;;;;;;;6.00;0.90;;;;;;;-147.53;100.00;57128.34;15287821;19;20585;-60
2021/12/02 00:17:13;;;;;;;13.57;1.33;;;;;;;-147.53;100.00;57128.34;15288346;19;20011;-60
2021/12/02 00:22:16;;;;;;;9.73;0.70;;;;;;;-147.53;100.00;57128.34;15285519;19;20035;-60
2021/12/02 00:27:20;;;;;;;3.83;1.00;;;;;;;-147.53;100.00;57128.34;15294393;19;20021;-60
2021/12/02 00:32:25;;;;;;;7.72;1.10;;;;;;;-147.53;100.00;57128.34;15301939;19;20017;-60
2021/12/02 00:37:27;;;;;;;8.38;1.08;;;;;;;-147.53;100.00;57128.34;15302052;19;20650;-59
2021/12/02 00:42:30;;;;;;;4.53;0.98;;;;;;;-147.53;100.00;57128.34;15302212;19;20018;-60
2021/12/02 00:47:33;;;;;;;10.40;1.17;;;;;;;-147.53;100.00;57128.34;15300222;19;20534;-61
2021/12/02 00:52:36;;;;;;;5.95;0.73;;;;;;;-147.53;100.00;57128.34;15300264;19;20031;-60
2021/12/02 00:57:39;;;;;;;6.40;0.52;;;;;;;-147.53;100.00;57128.34;15299374;19;20094;-60
2021/12/02 01:02:42;;;;;;;6.72;0.70;;;;;;;-147.53;100.00;57128.34;15299094;19;20010;-58
2021/12/02 01:07:45;;;;;;;8.80;0.75;;;;;;;-147.53;100.00;57128.34;15300999;19;20031;-60
2021/12/02 01:12:49;;;;;;;5.75;0.90;;;;;;;-147.53;100.00;57128.34;15300497;19;20018;-61
2021/12/02 01:17:50;;;;;;;4.32;0.65;;;;;;;-147.53;100.00;57128.34;15299124;19;20733;-61
2021/12/02 01:22:53;;;;;;;8.63;0.88;;;;;;;-147.53;100.00;57128.34;15298550;19;20086;-61
2021/12/02 01:27:56;;;;;;;9.02;1.08;;;;;;;-147.53;100.00;57128.34;15300532;19;20035;-61
2021/12/02 01:33:06;;;;;;;5.32;1.23;;;;;;;-147.53;100.00;57128.34;15296713;19;20027;-60
2021/12/02 01:38:08;;;;;;;17.10;1.37;;;;;;;-147.53;100.00;57128.34;15297147;19;20102;-60
2021/12/02 01:43:17;;;;;;;6.70;0.75;;;;;;;-147.53;100.00;57128.34;15298237;19;20014;-59
2021/12/02 01:48:24;;;;;;;1.83;0.47;;;;;;;-147.53;100.00;57128.34;15298267;19;20526;-60
2021/12/02 01:53:31;;;;;;;2.92;0.95;;;;;;;-147.53;100.00;57128.34;15297900;19;20021;-61
2021/12/02 01:58:41;;;;;;;2.17;0.73;;;;;;;-147.53;100.00;57128.34;15295445;19;20086;-60
2021/12/02 02:03:43;;;;;;;6.55;0.90;;;;;;;-147.53;100.00;57128.34;15298459;19;20035;-60
2021/12/02 02:08:46;;;;;;;10.60;0.77;;;;;;;-147.53;100.00;57128.34;15294378;19;20115;-60
2021/12/02 02:13:47;;;;;;;4.93;1.02;;;;;;;-147.53;100.00;57128.34;15295300;19;20018;-60
2021/12/02 02:18:49;;;;;;;5.97;1.30;;;;;;;-147.53;100.00;57128.34;15295010;19;20074;-59
2021/12/02 02:23:56;;;;;;;9.27;1.38;;;;;;;-147.53;100.00;57128.34;15296801;19;20316;-60
2021/12/02 02:28:58;;;;;;;3.72;0.82;;;;;;;-147.53;100.00;57128.34;15293610;19;20462;-58
2021/12/02 02:34:00;;;;;;;6.40;1.10;;;;;;;-147.53;100.00;57128.34;15294577;19;20011;-59
2021/12/02 02:39:03;;;;;;;7.63;0.93;;;;;;;-147.53;100.00;57128.34;15293569;19;20159;-60
2021/12/02 02:44:06;;;;;;;6.30;0.93;;;;;;;-147.53;100.00;57128.34;15293679;19;20031;-60
2021/12/02 02:49:12;;;;;;;8.90;0.88;;;;;;;-147.53;100.00;57128.34;15291813;19;20178;-60
2021/12/02 02:54:16;;;;;;;3.45;0.98;;;;;;;-147.53;100.00;57128.34;15294580;19;20015;-60
2021/12/02 02:59:31;;;;;;;3.72;0.73;;;;;;;-147.53;100.00;57128.34;15294150;19;20018;-60
2021/12/02 03:10:32;;;;;;;5.10;1.02;;;;;;;-147.53;100.00;57128.34;15181518;19;2004218;-60
2021/12/02 03:20:55;;;;;;;4.00;0.80;;;;;;;-147.53;100.00;57128.34;15291119;19;20114;-60
2021/12/02 03:25:59;;;;;;;3.90;0.60;;;;;;;-147.53;100.00;57128.34;15290911;19;20093;-59
2021/12/02 03:31:03;;;;;;;6.72;0.82;;;;;;;-147.53;100.00;57128.34;15290968;19;20015;-60
2021/12/02 03:36:05;;;;;;;3.15;0.68;;;;;;;-147.53;100.00;57128.34;15290646;19;20021;-59
2021/12/02 03:41:07;;;;;;;5.70;0.65;;;;;;;-147.53;100.00;57128.34;15290595;19;20024;-60
2021/12/02 03:46:11;;;;;;;4.05;0.95;;;;;;;-147.53;100.00;57128.34;15291432;19;20031;-60
2021/12/02 03:51:13;;;;;;;7.22;0.80;;;;;;;-147.53;100.00;57128.34;15287854;19;20036;-60
2021/12/02 03:56:16;;;;;;;2.65;0.73;;;;;;;-147.53;100.00;57128.34;15290110;19;20090;-59
2021/12/02 04:01:18;;;;;;;3.67;0.88;;;;;;;-147.53;100.00;57128.34;15288779;19;20014;-60
2021/12/02 04:06:21;;;;;;;6.80;0.80;;;;;;;-147.53;100.00;57128.34;15290245;19;20014;-58
2021/12/02 04:16:32;;;;;;;3.70;0.60;;;;;;;-147.53;100.00;57128.34;15289424;19;20537;-59
2021/12/02 04:21:34;;;;;;;3.10;0.88;;;;;;;-147.53;100.00;57128.34;15289643;19;20021;-60
2021/12/02 04:26:36;;;;;;;5.57;0.93;;;;;;;-147.53;100.00;57128.34;15289300;19;20018;-60
2021/12/02 04:31:43;;;;;;;6.10;0.90;;;;;;;-147.53;100.00;57128.34;15288613;19;20010;-60
2021/12/02 04:36:45;;;;;;;7.00;1.20;;;;;;;-147.53;100.00;57128.34;15288673;19;20028;-60
2021/12/02 04:41:47;;;;;;;5.00;0.98;;;;;;;-147.53;100.00;57128.34;15288950;19;20101;-60
2021/12/02 04:46:51;;;;;;;2.20;0.70;;;;;;;-147.53;100.00;57128.34;15289113;19;20081;-60
2021/12/02 04:51:52;;;;;;;5.63;0.57;;;;;;;-147.53;100.00;57128.34;15287066;19;20020;-60
2021/12/02 04:56:54;;;;;;;2.03;0.60;;;;;;;-147.53;100.00;57128.34;15286841;19;20078;-60
2021/12/02 05:01:56;;;;;;;2.42;0.52;;;;;;;-147.53;100.00;57128.34;15283145;19;20019;-59
2021/12/02 05:06:58;;;;;;;2.78;0.95;;;;;;;-147.53;100.00;57128.34;15285788;19;20020;-59
2021/12/02 05:11:59;;;;;;;3.50;0.80;;;;;;;-147.53;100.00;57128.34;15285897;19;20082;-60
2021/12/02 05:17:01;;;;;;;5.20;0.75;;;;;;;-147.53;100.00;57128.34;15299281;19;20546;-60
2021/12/02 05:22:03;;;;;;;3.65;0.65;;;;;;;-147.53;100.00;57128.34;15297889;19;20614;-59
2021/12/02 05:27:05;;;;;;;0.68;0.40;;;;;;;-147.53;100.00;57128.34;15299594;19;20077;-59
2021/12/02 05:32:07;;;;;;;4.28;0.77;;;;;;;-147.53;100.00;57128.34;15299006;19;20089;-59
2021/12/02 05:37:08;;;;;;;4.28;0.65;;;;;;;-147.53;100.00;57128.34;15294929;19;20014;-60
2021/12/02 05:42:10;;;;;;;4.60;0.57;;;;;;;-147.53;100.00;57128.34;15297478;19;20093;-60
2021/12/02 05:47:12;;;;;;;3.10;0.70;;;;;;;-147.53;100.00;57128.34;15297497;19;20420;-60
2021/12/02 05:52:14;;;;;;;4.75;0.50;;;;;;;-147.53;100.00;57128.34;15295055;19;20021;-59
2021/12/02 05:57:16;;;;;;;2.75;0.98;;;;;;;-147.53;100.00;57128.34;15297511;19;20081;-60
2021/12/02 06:02:17;;;;;;;1.77;0.52;;;;;;;-147.53;100.00;57128.34;15294934;19;20018;-60
2021/12/02 06:07:20;;;;;;;3.97;0.60;;;;;;;-147.53;100.00;57128.34;15292900;19;20021;-60
2021/12/02 06:12:22;;;;;;;6.50;0.60;;;;;;;-147.53;100.00;57128.34;15294074;19;20034;-59
2021/12/02 06:17:23;;;;;;;1.85;0.38;;;;;;;-147.53;100.00;57128.34;15291692;19;20081;-61
2021/12/02 06:22:25;;;;;;;5.03;0.60;;;;;;;-147.53;100.00;57128.34;15289150;19;20074;-60
2021/12/02 06:27:27;;;;;;;1.10;0.40;;;;;;;-147.53;100.00;57128.34;15291698;19;20014;-59
2021/12/02 06:32:28;;;;;;;2.63;0.90;;;;;;;-147.53;100.00;57128.34;15294667;19;20082;-60
2021/12/02 06:37:30;;;;;;;5.80;0.90;;;;;;;-147.53;100.00;57128.34;15292228;19;20037;-60
2021/12/02 06:42:32;;;;;;;3.45;0.82;;;;;;;-147.53;100.00;57128.34;15288443;19;20467;-60
2021/12/02 06:47:40;;;;;;;0.98;0.60;;;;;;;-147.53;100.00;57128.34;15285715;19;20028;-60
2021/12/02 06:52:43;;;;;;;2.30;1.00;;;;;;;-147.53;100.00;57128.34;15293945;19;20090;-60
2021/12/02 06:57:45;;;;;;;1.50;0.88;;;;;;;-147.53;100.00;57128.34;15293409;19;20557;-60
2021/12/02 07:02:48;;;;;;;2.22;0.90;;;;;;;-147.53;100.00;57128.34;15292035;19;20090;-60
2021/12/02 07:07:56;;;;;;;2.53;1.20;;;;;;;-147.53;100.00;57128.34;15285648;19;20010;-60
2021/12/02 07:12:59;;;;;;;1.88;1.10;;;;;;;-147.53;100.00;57128.34;15292462;19;20093;-60
2021/12/02 07:18:02;;;;;;;2.47;1.30;;;;;;;-147.53;100.00;57128.34;15290118;19;20085;-60
2021/12/02 07:23:03;;;;;;;1.55;1.00;;;;;;;-147.53;100.00;57128.34;15291831;19;20098;-60
2021/12/02 07:28:05;;;;;;;1.90;1.10;;;;;;;-147.53;100.00;57128.34;15290323;19;20514;-61
2021/12/02 07:33:10;;;;;;;2.00;1.02;;;;;;;-147.53;100.00;57128.34;15290679;19;20403;-59
2021/12/02 07:38:12;;;;;;;2.25;1.10;;;;;;;-147.53;100.00;57128.34;15288663;19;20034;-60
2021/12/02 07:43:14;;;;;;;2.45;0.80;;;;;;;-147.53;100.00;57128.34;15288334;19;20486;-60
2021/12/02 07:48:16;;;;;;;2.58;1.02;;;;;;;-147.53;100.00;57128.34;15290115;19;20747;-60
2021/12/02 07:53:18;;;;;;;11.30;1.33;;;;;;;-147.53;100.00;57128.34;15287671;19;20086;-60
2021/12/02 07:58:23;;;;;;;4.97;1.10;;;;;;;-147.53;100.00;57128.34;15290464;19;20022;-60
2021/12/02 08:03:26;;;;;;;2.88;1.25;;;;;;;-147.53;100.00;57128.34;15289683;19;20014;-60
2021/12/02 08:08:28;;;;;;;7.80;3.30;;;;;;;-147.53;100.00;57128.34;15289968;19;20018;-60
2021/12/02 08:13:30;;;;;;;5.57;1.70;;;;;;;-147.53;100.00;57128.34;15290133;19;20357;-60
2021/12/02 08:18:34;;;;;;;5.18;1.80;;;;;;;-147.53;100.00;57128.34;15287615;19;20007;-60
2021/12/02 08:23:35;;;;;;;2.45;1.02;;;;;;;-147.53;100.00;57128.34;15282915;19;20015;-60
2021/12/02 08:28:37;;;;;;;2.92;1.00;;;;;;;-147.53;100.00;57128.34;15286077;19;20015;-60
2021/12/02 08:33:39;;;;;;;4.68;1.15;;;;;;;-147.53;100.00;57128.34;15287062;19;20014;-60
2021/12/02 08:38:40;;;;;;;7.13;1.80;;;;;;;-147.53;100.00;57128.34;15284983;19;20035;-60
2021/12/02 08:43:42;;;;;;;5.30;1.40;;;;;;;-147.53;100.00;57128.34;15282383;19;20081;-60
2021/12/02 08:48:46;;;;;;;3.70;1.30;;;;;;;-147.53;100.00;57128.34;15287239;19;20023;-59
2021/12/02 08:53:47;;;;;;;4.07;1.45;;;;;;;-147.53;100.00;57128.34;15299458;19;20081;-60
2021/12/02 08:58:49;;;;;;;3.47;1.27;;;;;;;-147.53;100.00;57128.34;15302291;19;20483;-59
2021/12/02 09:03:51;;;;;;;2.60;1.08;;;;;;;-147.53;100.00;57128.34;15297169;19;20010;-60
2021/12/02 09:08:57;;;;;;;5.28;1.27;;;;;;;-147.53;100.00;57128.34;15299593;19;20097;-60
2021/12/02 09:14:01;;;;;;;4.65;1.50;;;;;;;-147.53;100.00;57128.34;15301473;19;20021;-60
2021/12/02 09:19:03;;;;;;;4.55;1.60;;;;;;;-147.53;100.00;57128.34;15299816;19;20018;-60
2021/12/02 09:24:05;;;;;;;3.78;1.50;;;;;;;-147.53;100.00;57128.34;15292607;19;20086;-60
2021/12/02 09:29:07;;;;;;;1.88;1.05;;;;;;;-147.53;100.00;57128.34;15291192;19;20090;-59
2021/12/02 09:34:08;;;;;;;4.53;1.58;;;;;;;-147.53;100.00;57128.34;15297379;19;20713;-59
2021/12/02 09:39:11;;;;;;;4.70;1.90;;;;;;;-147.53;100.00;57128.34;15286468;19;20534;-60
2021/12/02 09:44:14;;;;;;;8.13;3.00;;;;;;;-147.53;100.00;57128.34;15290903;19;20040;-60
2021/12/02 09:49:17;;;;;;;6.82;2.55;;;;;;;-147.53;100.00;57128.34;15295208;19;20022;-60
2021/12/02 09:54:26;;;;;;;7.80;3.55;;;;;;;-147.53;100.00;57128.34;15297665;19;20018;-60
2021/12/02 10:05:00;;;;;;;6.45;2.90;;;;;;;-147.53;100.00;57128.34;15290063;19;20027;-59
2021/12/02 10:10:13;;;;;;;5.95;2.60;;;;;;;-147.53;100.00;57128.34;15296641;19;20025;-60
2021/12/02 10:15:16;;;;;;;6.88;2.42;;;;;;;-147.53;100.00;57128.34;15190603;19;2004363;-60
2021/12/02 10:20:39;;;;;;;9.02;3.10;;;;;;;-147.53;100.00;57128.34;15297171;19;20470;-60
2021/12/02 10:25:55;;;;;;;7.40;2.53;;;;;;;-147.53;100.00;57128.34;15296500;19;20014;-61
2021/12/02 10:31:04;;;;;;;6.35;2.97;;;;;;;-147.53;100.00;57128.34;15297066;19;20371;-61
2021/12/02 10:36:27;;;;;;;10.00;3.40;;;;;;;-147.53;100.00;57128.34;15296217;19;20154;-60
2021/12/02 10:41:30;;;;;;;6.57;2.63;;;;;;;-147.53;100.00;57128.34;15294514;19;20479;-60
2021/12/02 10:46:33;;;;;;;6.03;2.65;;;;;;;-147.53;100.00;57128.34;15294741;19;20077;-61
2021/12/02 10:51:46;;;;;;;7.28;3.00;;;;;;;-147.53;100.00;57128.34;15295082;19;20361;-61
2021/12/02 10:56:59;;;;;;;6.72;2.65;;;;;;;-147.53;100.00;57128.34;15292142;19;20014;-59
2021/12/02 11:02:14;;;;;;;7.72;3.00;;;;;;;-147.53;100.00;57128.34;15289280;19;20011;-60
2021/12/02 11:07:41;;;;;;;11.63;3.17;;;;;;;-147.53;100.00;57128.34;15290047;19;20017;-60
2021/12/02 11:12:49;;;;;;;7.30;3.17;;;;;;;-147.53;100.00;57128.34;15289446;19;20018;-60
2021/12/02 11:18:01;;;;;;;6.97;2.72;;;;;;;-147.53;100.00;57128.34;15292480;19;20031;-60
2021/12/02 11:23:09;;;;;;;4.72;1.60;;;;;;;-147.53;100.00;57128.34;15289910;19;20015;-59
2021/12/02 11:28:12;;;;;;;3.53;1.40;;;;;;;-147.53;100.00;57128.34;15292611;19;20095;-58
2021/12/02 11:33:18;;;;;;;3.15;1.52;;;;;;;-147.53;100.00;57128.34;15292190;19;20026;-59
2021/12/02 11:38:25;;;;;;;5.95;1.77;;;;;;;-147.53;100.00;57128.34;15289495;19;20466;-59
2021/12/02 11:43:33;;;;;;;2.72;1.10;;;;;;;-147.53;100.00;57128.34;15285911;19;20018;-58
2021/12/02 11:48:38;;;;;;;4.70;0.93;;;;;;;-147.53;100.00;57128.34;15288900;19;20541;-58
2021/12/02 11:53:41;;;;;;;1.42;0.75;;;;;;;-147.53;100.00;57128.34;15289437;19;20347;-58
2021/12/02 11:58:43;;;;;;;1.77;0.82;;;;;;;-147.53;100.00;57128.34;15286718;19;20011;-58
2021/12/02 12:03:50;;;;;;;1.83;0.82;;;;;;;-147.53;100.00;57128.34;15287816;19;20548;-58
2021/12/02 12:08:52;;;;;;;3.45;1.10;;;;;;;-147.53;100.00;57128.34;15285486;19;20506;-58
2021/12/02 12:13:57;;;;;;;2.35;0.70;;;;;;;-147.53;100.00;57128.34;15286621;19;20014;-58
2021/12/02 12:19:30;;;;;;;2.83;0.95;;;;;;;-147.53;100.00;57128.34;15283310;19;20432;-59
2021/12/02 12:24:52;;;;;;;6.63;1.95;;;;;;;-147.53;100.00;57128.34;15273286;19;20015;-59
2021/12/02 12:30:20;;;;;;;1.33;0.80;;;;;;;-147.53;100.00;57128.34;15302100;19;20018;-58
2021/12/02 12:41:12;;;;;;;1.05;0.52;;;;;;;-147.53;100.00;57128.34;15299852;19;20458;-58
2021/12/02 12:46:18;;;;;;;1.83;0.80;;;;;;;-147.53;100.00;57128.34;15302617;19;20007;-57
2021/12/02 12:51:26;;;;;;;3.00;0.85;;;;;;;-147.53;100.00;57128.34;15300265;19;20010;-58
2021/12/02 12:56:38;;;;;;;3.30;0.88;;;;;;;-147.53;100.00;57128.34;15301222;19;20034;-57
2021/12/02 13:01:54;;;;;;;3.22;1.05;;;;;;;-147.53;100.00;57128.34;15300428;19;20120;-57
2021/12/02 13:07:04;;;;;;;3.88;1.35;;;;;;;-147.53;100.00;57128.34;15302848;19;20078;-59
2021/12/02 13:12:06;;;;;;;4.97;1.58;;;;;;;-147.53;100.00;57128.34;15296777;19;20018;-58
2021/12/02 13:17:53;;;;;;;2.03;1.15;;;;;;;-147.53;100.00;57128.34;15297391;19;20039;-57
2021/12/02 13:23:13;;;;;;;1.08;0.85;;;;;;;-147.53;100.00;57128.34;15295548;19;20011;-57
2021/12/02 13:28:17;;;;;;;1.13;0.90;;;;;;;-147.53;100.00;57128.34;15302277;19;20021;-57
2021/12/02 13:33:30;;;;;;;5.72;0.88;;;;;;;-147.53;100.00;57128.34;15297119;19;20014;-57
2021/12/02 13:38:32;;;;;;;2.63;1.00;;;;;;;-147.53;100.00;57128.34;15300537;19;20038;-57
2021/12/02 13:43:34;;;;;;;1.95;0.90;;;;;;;-147.53;100.00;57128.34;15293935;19;20081;-56
2021/12/02 13:48:35;;;;;;;1.80;0.90;;;;;;;-147.53;100.00;57128.34;15297759;19;20042;-57
2021/12/02 13:53:45;;;;;;;1.30;0.68;;;;;;;-147.53;100.00;57128.34;15298604;19;20408;-59
2021/12/02 13:58:47;;;;;;;9.80;2.92;;;;;;;-147.53;100.00;57128.34;15297719;19;20015;-56
2021/12/02 14:03:48;;;;;;;2.05;1.20;;;;;;;-147.53;100.00;57128.34;15294505;19;20086;-56
2021/12/02 14:08:50;;;;;;;5.05;2.10;;;;;;;-147.53;100.00;57128.34;15298593;19;20031;-57
2021/12/02 14:13:55;;;;;;;4.07;1.40;;;;;;;-147.53;100.00;57128.34;15296833;19;20078;-60
2021/12/02 14:19:18;;;;;;;2.80;1.10;;;;;;;-147.53;100.00;57128.34;15294518;19;20018;-59
2021/12/02 14:24:19;;;;;;;3.60;1.38;;;;;;;-147.53;100.00;57128.34;15291502;19;20073;-60
2021/12/02 14:29:21;;;;;;;4.75;1.95;;;;;;;-147.53;100.00;57128.34;15296135;19;20015;-59
2021/12/02 14:34:25;;;;;;;4.72;1.92;;;;;;;-147.53;100.00;57128.34;15290924;19;20014;-59
2021/12/02 14:39:30;;;;;;;4.28;2.05;;;;;;;-147.53;100.00;57128.34;15294596;19;20010;-60
2021/12/02 14:44:35;;;;;;;6.15;2.30;;;;;;;-147.53;100.00;57128.34;15290965;19;20011;-60
2021/12/02 14:49:40;;;;;;;6.60;2.53;;;;;;;-147.53;100.00;57128.34;15294878;19;20010;-61
2021/12/02 14:55:00;;;;;;;10.75;3.83;;;;;;;-147.53;100.00;57128.34;15296790;19;20017;-59
2021/12/02 15:00:11;;;;;;;6.35;2.40;;;;;;;-147.53;100.00;57128.34;15293307;19;20010;-61
2021/12/02 15:05:13;;;;;;;5.13;2.10;;;;;;;-147.53;100.00;57128.34;15187181;19;2004419;-59
2021/12/02 15:10:27;;;;;;;2.92;1.20;;;;;;;-147.53;100.00;57128.34;15266316;19;20089;-59
2021/12/02 15:15:31;;;;;;;6.78;1.73;;;;;;;-147.53;100.00;57128.34;15294286;19;20025;-60
2021/12/02 15:20:38;;;;;;;5.93;2.10;;;;;;;-147.53;100.00;57128.34;15290811;19;20364;-61
2021/12/02 15:25:41;;;;;;;3.13;1.40;;;;;;;-147.53;100.00;57128.34;15288389;19;20031;-62
2021/12/02 15:30:59;;;;;;;6.80;2.20;;;;;;;-147.53;100.00;57128.34;15261698;19;20101;-60
2021/12/02 15:36:06;;;;;;;5.47;2.85;;;;;;;-147.53;100.00;57128.34;15153998;19;20516;-59
2021/12/02 15:41:10;;;;;;;11.18;4.28;;;;;;;-147.53;100.00;57128.34;15151964;19;21132;-61
2021/12/02 15:46:14;;;;;;;9.73;4.35;;;;;;;-147.53;100.00;57128.34;15150489;19;20011;-61
2021/12/02 16:03:44;;;;;;;6.10;3.03;;;;;;;-147.53;100.00;57128.34;15229707;19;20587;-61
2021/12/02 16:09:42;;;;;;;5.65;2.40;;;;;;;-147.53;100.00;57128.34;15150345;19;20015;-60
2021/12/02 16:14:23;;;;;;;4.88;1.77;;;;;;;-147.53;100.00;57128.34;15151908;19;20779;-59
2021/12/02 16:19:27;;;;;;;3.20;1.58;;;;;;;-147.53;100.00;57128.34;15148893;19;20037;-62
2021/12/02 16:24:29;;;;;;;8.82;2.83;;;;;;;-147.53;100.00;57128.34;15148636;19;20029;-60
2021/12/02 16:29:32;;;;;;;9.15;4.32;;;;;;;2.77;91.54;98974.66;15152761;19;20462;-59
2021/12/02 16:34:35;;;;;;;15.18;6.45;;;;;;;-1.10;100.00;100357.69;15149071;19;20015;-58
2021/12/02 16:39:37;;;;;;;9.27;4.90;;;;;;;-1.15;100.00;100352.31;15152132;19;20018;-58
2021/12/02 16:44:39;;;;;;;12.25;4.95;;;;;;;-1.16;100.00;100363.38;15149085;19;20760;-60
2021/12/02 16:49:42;;;;;;;11.55;4.80;;;;;;;-1.19;100.00;100370.03;15154028;19;20498;-59
2021/12/02 16:54:44;;;;;;;13.75;6.88;;;;;;;-1.20;100.00;100378.53;15149973;19;20541;-61
2021/12/02 16:59:46;;;;;;;14.23;7.53;;;;;;;-1.26;100.00;100382.53;15151736;19;20014;-61
2021/12/02 17:04:50;;;;;;;11.90;5.85;;;;;;;-1.27;100.00;100390.16;15141268;19;20545;-59
2021/12/02 17:09:52;;;;;;;18.08;7.68;;;;;;;-1.30;100.00;100408.81;15155767;19;20122;-59
2021/12/02 17:14:55;;;;;;;16.58;8.43;;;;;;;-1.31;100.00;100414.75;15163805;19;20011;-59
2021/12/02 17:19:57;;;;;;;15.90;8.15;;;;;;;-1.34;100.00;100419.72;15163980;19;20303;-60
2021/12/02 17:24:58;;;;;;;17.35;8.32;;;;;;;-1.33;100.00;100421.50;15160959;19;20014;-61
2021/12/02 17:30:06;;;;;;;20.50;9.68;;;;;;;-1.37;100.00;100421.22;15167462;19;20925;-61
2021/12/02 17:35:10;;;;;;;22.88;10.35;;;;;;;-1.37;100.00;100429.81;15164098;19;20475;-62
2021/12/02 17:40:29;;;;;;;25.15;10.90;;;;;;;-1.37;100.00;100429.81;15167993;19;20085;-62
2021/12/02 17:45:31;;;;;;;42.63;17.13;;;;;;;-1.40;100.00;100439.91;15161356;19;20082;-59
2021/12/02 17:50:36;;;;;;;44.83;16.23;;;;;;;-1.40;100.00;100431.31;15163344;19;20573;-58
2021/12/02 17:55:38;;;;;;;14.60;6.47;;;;;;;-1.49;100.00;100426.50;15161986;19;20046;-58
2021/12/02 18:00:40;;;;;;;22.05;8.10;;;;;;;-1.42;100.00;100446.63;15163330;19;20018;-60
2021/12/02 18:05:43;;;;;;;14.13;6.00;;;;;;;-1.46;100.00;100444.69;15159371;19;20869;-59
2021/12/02 18:10:45;;;;;;;13.38;6.32;;;;;;;-1.55;100.00;100444.13;15161863;19;20351;-59
2021/12/02 18:15:46;;;;;;;12.07;6.43;;;;;;;-1.63;100.00;100451.38;15158639;19;20014;-57
2021/12/02 18:20:48;;;;;;;17.88;7.78;;;;;;;-1.80;100.00;100463.19;15156476;19;20022;-59
2021/12/02 18:25:50;;;;;;;17.35;7.47;;;;;;;-1.84;100.00;100472.38;15152749;19;20018;-62
2021/12/02 18:30:52;;;;;;;18.83;7.32;;;;;;;-1.79;100.00;100475.22;15053098;19;20630;-60
2021/12/02 18:35:54;;;;;;;17.55;7.15;;;;;;;-1.84;100.00;100486.88;14764675;19;20014;-60
2021/12/02 18:40:56;;;;;;;17.17;7.15;;;;;;;-1.83;100.00;100483.50;15130678;19;20021;-61
2021/12/02 18:46:04;;;;;;;16.83;7.82;;;;;;;-1.84;100.00;100476.63;15102535;19;20520;-61
2021/12/02 18:51:06;;;;;;;23.42;9.05;;;;;;;-1.84;100.00;100484.31;14997085;19;20980;-64
2021/12/02 18:56:09;;;;;;;19.90;8.85;;;;;;;-1.83;100.00;100480.94;14844227;19;20368;-61
2021/12/02 19:01:13;;;;;;;23.73;9.45;;;;;;;-1.86;100.00;100481.66;14637854;19;20579;-61
2021/12/02 19:27:48;;;;;;;21.33;8.20;;;;;;;-1.96;100.00;100503.28;15156950;19;20018;-62
2021/12/02 19:32:50;;;;;;;15.73;7.15;;;;;;;-1.88;100.00;100487.47;15151570;19;20476;-62
2021/12/02 19:37:54;;;;;;;15.25;6.95;;;;;;;-1.97;100.00;100496.41;15154955;19;20440;-60
2021/12/02 19:42:58;;;;;;;20.90;9.98;;;;;;;-1.93;100.00;100512.00;15152029;19;20018;-61
2021/12/02 19:48:00;;;;;;;17.45;8.10;;;;;;;-1.93;100.00;100532.53;15150676;19;20020;-60
2021/12/02 19:53:02;;;;;;;16.83;7.57;;;;;;;-1.97;100.00;100531.41;15153595;19;20010;-58
2021/12/02 19:58:03;;;;;;;16.38;6.53;;;;;;;-2.03;100.00;100539.59;15154764;19;20019;-59
2021/12/02 20:03:06;;;;;;;11.73;5.18;;;;;;;-2.01;100.00;100540.63;15152446;19;20034;-58
2021/12/02 20:08:10;;;;;;;16.08;7.25;;;;;;;-1.99;100.00;100550.97;15140106;19;20019;-61
2021/12/02 20:13:12;;;;;;;20.30;8.02;;;;;;;-1.97;100.00;100537.47;15135021;19;20018;-60
2021/12/02 20:18:17;;;;;;;11.63;5.25;;;;;;;-2.03;100.00;100536.16;15148314;19;20015;-62
2021/12/02 20:23:19;;;;;;;14.57;5.68;;;;;;;-1.99;100.00;100531.31;15134278;19;20018;-61
2021/12/02 20:28:24;;;;;;;11.77;5.20;;;;;;;-1.99;100.00;100531.31;15115909;19;20652;-61
2021/12/02 20:33:26;;;;;;;13.00;5.78;;;;;;;-2.03;100.00;100534.47;15227533;19;20027;-61
2021/12/02 20:38:28;;;;;;;10.48;4.78;;;;;;;-2.09;100.00;100534.09;15197056;19;20082;-61
2021/12/02 20:43:31;;;;;;;11.85;4.97;;;;;;;-2.04;100.00;100525.03;15243788;19;20097;-59
2021/12/02 20:48:39;;;;;;;11.75;4.85;;;;;;;-2.05;100.00;100528.38;15145564;19;20250;-61
2021/12/02 20:53:42;;;;;;;11.73;4.57;;;;;;;-1.98;100.00;100534.78;15169166;19;20074;-59
2021/12/02 20:58:45;;;;;;;12.93;5.63;;;;;;;-1.89;100.00;100539.59;15241729;19;20370;-61
2021/12/02 21:03:46;;;;;;;13.57;6.05;;;;;;;-1.89;100.00;100567.81;15297131;19;20010;-61
2021/12/02 21:08:48;;;;;;;13.88;4.95;;;;;;;-1.96;100.00;100571.69;15300634;19;20031;-60
2021/12/02 21:13:52;;;;;;;9.68;3.95;;;;;;;-2.00;100.00;100567.16;15300257;19;20081;-61
2021/12/02 21:18:54;;;;;;;10.40;4.15;;;;;;;-2.05;100.00;100564.28;15300562;19;20015;-59
2021/12/02 21:23:55;;;;;;;12.00;5.15;;;;;;;-2.08;100.00;100565.78;15297684;19;20017;-61
2021/12/02 21:28:57;;;;;;;11.68;4.97;;;;;;;-2.08;100.00;100566.66;15299732;19;20074;-63
2021/12/02 21:34:01;;;;;;;11.88;4.30;;;;;;;-2.13;100.00;100560.38;15299593;19;20031;-59
2021/12/02 21:39:10;;;;;;;12.27;3.90;;;;;;;-2.17;100.00;100550.69;15301391;19;20017;-59
2021/12/02 21:44:12;;;;;;;10.80;4.63;;;;;;;-2.20;100.00;100558.19;15296902;19;20027;-60
2021/12/02 21:49:15;;;;;;;13.80;5.28;;;;;;;-2.19;100.00;100559.94;15300174;19;20023;-61
2021/12/02 21:54:19;;;;;;;7.35;3.50;;;;;;;-2.21;100.00;100554.72;15296920;19;20425;-60
2021/12/02 21:59:28;;;;;;;11.82;4.32;;;;;;;-2.11;100.00;100558.78;15297818;19;20010;-60
2021/12/02 22:04:30;;;;;;;11.75;3.70;;;;;;;-2.10;100.00;100569.91;15296435;19;20031;-61
2021/12/02 22:09:33;;;;;;;7.57;3.30;;;;;;;-2.07;100.00;100586.41;15294340;19;20028;-62
2021/12/02 22:14:35;;;;;;;7.78;3.40;;;;;;;-2.07;100.00;100588.97;15295623;19;20022;-60
2021/12/02 22:19:36;;;;;;;8.02;3.33;;;;;;;-2.00;100.00;100598.84;15296253;19;20011;-60
2021/12/02 22:24:38;;;;;;;8.73;2.92;;;;;;;-1.97;100.00;100596.47;15295072;19;20098;-59
2021/12/02 22:29:40;;;;;;;9.13;2.97;;;;;;;-1.92;100.00;100608.69;15293170;19;20090;-61
2021/12/02 22:34:45;;;;;;;7.40;2.85;;;;;;;-1.99;100.00;100630.53;15297005;19;20393;-61
2021/12/02 22:39:47;;;;;;;18.98;6.35;;;;;;;-2.05;100.00;100635.25;15295142;19;20018;-61
2021/12/02 22:44:49;;;;;;;6.93;3.50;;;;;;;-2.10;100.00;100652.00;15292127;19;20390;-60
2021/12/02 22:49:50;;;;;;;5.65;2.28;;;;;;;-2.07;100.00;100645.44;15295203;19;20131;-59
2021/12/02 22:54:52;;;;;;;5.20;2.33;;;;;;;-2.04;100.00;100626.75;15295029;19;20109;-60
2021/12/02 22:59:55;;;;;;;6.00;2.63;;;;;;;-2.09;100.00;100631.59;15292661;19;20037;-60
2021/12/02 23:04:56;;;;;;;5.72;2.42;;;;;;;-2.14;100.00;100641.56;15292537;19;20788;-61
2021/12/02 23:10:00;;;;;;;8.85;3.45;;;;;;;-2.16;100.00;100634.56;15291953;19;20035;-61
2021/12/02 23:15:02;;;;;;;8.05;3.17;;;;;;;-2.23;100.00;100629.81;15293682;19;20479;-60
2021/12/02 23:20:06;;;;;;;5.95;2.90;;;;;;;-2.19;100.00;100621.50;15292545;19;20027;-60
2021/12/02 23:25:11;;;;;;;6.38;3.05;;;;;;;-2.25;100.00;100627.16;15290538;19;20022;-60
2021/12/02 23:30:13;;;;;;;6.80;2.90;;;;;;;-2.27;100.00;100626.13;15292277;19;20082;-60
2021/12/02 23:35:15;;;;;;;5.45;2.80;;;;;;;-2.29;100.00;100626.84;15292505;19;20010;-60
2021/12/02 23:40:17;;;;;;;7.55;3.17;;;;;;;-2.28;100.00;100626.03;15291174;19;20093;-61
2021/12/02 23:45:19;;;;;;;5.55;2.47;;;;;;;-2.20;100.00;100612.06;15287595;19;20081;-61
2021/12/02 23:50:21;;;;;;;9.27;3.20;;;;;;;-2.17;100.00;100617.38;15289786;19;20389;-60